LGRP/RHO METAR and TAF weather

Enter ICAO airport designator
Station Type Date Time Source
LGRP METAR 2020/07/06 02:50 UTC NOAA

LGRP 060250Z 24014KT 9999 FEW008 24/23 Q0999 NOSIG


Station Type Date Time Source
LGRP Decoded METAR 2020/07/06 02:50 UTC NOAA

Rhodes Airport , Greece (LGRP) 36-24N 028-05E 11M
Jul 05, 2020 - 10:50 PM EDT / 2020.07.06 0250 UTC
Wind: from the WSW (240 degrees) at 16 MPH (14 KT):0
Visibility: greater than 7 mile(s):0
Sky conditions: mostly clear
Temperature: 75 F (24 C)
Dew Point: 73 F (23 C)
Relative Humidity: 94%
Pressure (altimeter): 29.50 in. Hg (0999 hPa)
ob: LGRP 060250Z 24014KT 9999 FEW008 24/23 Q0999 NOSIG
cycle: 3

Station Type Date Time Source
LGRP TAF 2020/07/05 18:12 UTC NOAA

TAF LGRP 051700Z 0518/0618 27018KT 9999 FEW018

Example: see airport list